sensor_id;sensor_type;location;lat;lon;timestamp;P1;durP1;ratioP1;P2;durP2;ratioP2
62509;SDS011;48558;48.242;11.654;2022-08-21T00:14:23;1.65;;;1.55;;
62509;SDS011;48558;48.242;11.654;2022-08-21T00:20:27;1.58;;;1.40;;
62509;SDS011;48558;48.242;11.654;2022-08-21T00:32:58;1.83;;;1.70;;
62509;SDS011;48558;48.242;11.654;2022-08-21T00:52:25;4.23;;;1.50;;
62509;SDS011;48558;48.242;11.654;2022-08-21T00:58:15;1.67;;;1.58;;
62509;SDS011;48558;48.242;11.654;2022-08-21T01:04:11;1.42;;;1.33;;
62509;SDS011;48558;48.242;11.654;2022-08-21T01:21:44;1.52;;;1.45;;
62509;SDS011;48558;48.242;11.654;2022-08-21T01:27:50;4.07;;;1.85;;
62509;SDS011;48558;48.242;11.654;2022-08-21T01:33:51;3.28;;;1.60;;
62509;SDS011;48558;48.242;11.654;2022-08-21T01:39:43;1.58;;;1.38;;
62509;SDS011;48558;48.242;11.654;2022-08-21T01:46:09;1.35;;;1.25;;
62509;SDS011;48558;48.242;11.654;2022-08-21T01:51:58;2.08;;;1.42;;
62509;SDS011;48558;48.242;11.654;2022-08-21T01:58:07;2.38;;;1.30;;
62509;SDS011;48558;48.242;11.654;2022-08-21T02:10:36;2.15;;;1.58;;
62509;SDS011;48558;48.242;11.654;2022-08-21T02:16:42;1.45;;;1.30;;
62509;SDS011;48558;48.242;11.654;2022-08-21T02:22:16;1.50;;;1.20;;
62509;SDS011;48558;48.242;11.654;2022-08-21T02:27:51;3.15;;;1.50;;
62509;SDS011;48558;48.242;11.654;2022-08-21T02:33:33;1.27;;;1.27;;
62509;SDS011;48558;48.242;11.654;2022-08-21T02:38:48;1.50;;;1.40;;
62509;SDS011;48558;48.242;11.654;2022-08-21T02:44:29;1.27;;;1.27;;
62509;SDS011;48558;48.242;11.654;2022-08-21T02:49:43;2.67;;;1.33;;
62509;SDS011;48558;48.242;11.654;2022-08-21T03:00:47;2.50;;;1.50;;
62509;SDS011;48558;48.242;11.654;2022-08-21T03:12:33;1.50;;;1.50;;
62509;SDS011;48558;48.242;11.654;2022-08-21T03:18:04;1.52;;;1.42;;
62509;SDS011;48558;48.242;11.654;2022-08-21T03:23:28;4.10;;;1.40;;
62509;SDS011;48558;48.242;11.654;2022-08-21T03:28:42;1.53;;;1.43;;
62509;SDS011;48558;48.242;11.654;2022-08-21T03:33:58;1.73;;;1.63;;
62509;SDS011;48558;48.242;11.654;2022-08-21T03:39:23;2.63;;;1.50;;
62509;SDS011;48558;48.242;11.654;2022-08-21T03:44:48;4.18;;;1.80;;
62509;SDS011;48558;48.242;11.654;2022-08-21T03:49:56;7.43;;;1.60;;
62509;SDS011;48558;48.242;11.654;2022-08-21T03:55:07;2.40;;;1.77;;
62509;SDS011;48558;48.242;11.654;2022-08-21T04:00:45;1.80;;;1.50;;
62509;SDS011;48558;48.242;11.654;2022-08-21T04:05:51;1.65;;;1.55;;
62509;SDS011;48558;48.242;11.654;2022-08-21T04:10:55;1.40;;;1.40;;
62509;SDS011;48558;48.242;11.654;2022-08-21T04:16:01;1.70;;;1.60;;
62509;SDS011;48558;48.242;11.654;2022-08-21T04:21:09;2.10;;;1.60;;
62509;SDS011;48558;48.242;11.654;2022-08-21T04:26:15;1.83;;;1.60;;
62509;SDS011;48558;48.242;11.654;2022-08-21T04:31:41;2.03;;;1.73;;
62509;SDS011;48558;48.242;11.654;2022-08-21T04:36:46;2.80;;;1.90;;
62509;SDS011;48558;48.242;11.654;2022-08-21T04:41:49;4.95;;;2.00;;
62509;SDS011;48558;48.242;11.654;2022-08-21T04:46:53;2.05;;;1.90;;
62509;SDS011;48558;48.242;11.654;2022-08-21T04:51:56;1.80;;;1.70;;
62509;SDS011;48558;48.242;11.654;2022-08-21T04:57:00;5.90;;;2.40;;
62509;SDS011;48558;48.242;11.654;2022-08-21T05:02:08;2.00;;;1.90;;
62509;SDS011;48558;48.242;11.654;2022-08-21T05:07:14;2.10;;;2.00;;
62509;SDS011;48558;48.242;11.654;2022-08-21T05:12:42;2.20;;;2.10;;
62509;SDS011;48558;48.242;11.654;2022-08-21T05:17:46;3.85;;;1.92;;
62509;SDS011;48558;48.242;11.654;2022-08-21T05:23:05;5.95;;;2.13;;
62509;SDS011;48558;48.242;11.654;2022-08-21T05:28:13;1.80;;;1.70;;
62509;SDS011;48558;48.242;11.654;2022-08-21T05:33:17;1.88;;;1.73;;
62509;SDS011;48558;48.242;11.654;2022-08-21T05:38:21;4.53;;;1.88;;
62509;SDS011;48558;48.242;11.654;2022-08-21T05:43:26;1.90;;;1.77;;
62509;SDS011;48558;48.242;11.654;2022-08-21T05:48:30;1.80;;;1.70;;
62509;SDS011;48558;48.242;11.654;2022-08-21T05:53:34;2.05;;;1.92;;
62509;SDS011;48558;48.242;11.654;2022-08-21T05:58:38;1.92;;;1.83;;
62509;SDS011;48558;48.242;11.654;2022-08-21T06:03:41;3.20;;;2.03;;
62509;SDS011;48558;48.242;11.654;2022-08-21T06:08:45;1.85;;;1.65;;
62509;SDS011;48558;48.242;11.654;2022-08-21T06:13:48;2.10;;;2.00;;
62509;SDS011;48558;48.242;11.654;2022-08-21T06:18:52;1.85;;;1.75;;
62509;SDS011;48558;48.242;11.654;2022-08-21T06:23:58;1.98;;;1.80;;
62509;SDS011;48558;48.242;11.654;2022-08-21T06:29:01;2.25;;;1.85;;
62509;SDS011;48558;48.242;11.654;2022-08-21T06:34:04;1.85;;;1.75;;
62509;SDS011;48558;48.242;11.654;2022-08-21T06:39:08;1.80;;;1.70;;
62509;SDS011;48558;48.242;11.654;2022-08-21T06:44:26;1.80;;;1.70;;
62509;SDS011;48558;48.242;11.654;2022-08-21T06:49:30;6.78;;;1.90;;
62509;SDS011;48558;48.242;11.654;2022-08-21T06:54:34;1.70;;;1.65;;
62509;SDS011;48558;48.242;11.654;2022-08-21T06:59:37;1.90;;;1.80;;
62509;SDS011;48558;48.242;11.654;2022-08-21T07:04:42;2.28;;;2.17;;
62509;SDS011;48558;48.242;11.654;2022-08-21T07:09:45;2.22;;;2.03;;
62509;SDS011;48558;48.242;11.654;2022-08-21T07:14:50;7.93;;;2.40;;
62509;SDS011;48558;48.242;11.654;2022-08-21T07:19:57;2.72;;;2.47;;
62509;SDS011;48558;48.242;11.654;2022-08-21T07:25:02;4.53;;;2.65;;
62509;SDS011;48558;48.242;11.654;2022-08-21T07:30:07;4.10;;;2.75;;
62509;SDS011;48558;48.242;11.654;2022-08-21T07:35:11;2.58;;;2.38;;
62509;SDS011;48558;48.242;11.654;2022-08-21T07:40:14;2.78;;;2.40;;
62509;SDS011;48558;48.242;11.654;2022-08-21T07:45:19;3.83;;;2.80;;
62509;SDS011;48558;48.242;11.654;2022-08-21T07:50:24;4.18;;;2.90;;
62509;SDS011;48558;48.242;11.654;2022-08-21T07:55:28;3.60;;;2.92;;
62509;SDS011;48558;48.242;11.654;2022-08-21T08:00:32;3.28;;;2.65;;
62509;SDS011;48558;48.242;11.654;2022-08-21T08:05:35;3.55;;;2.65;;
62509;SDS011;48558;48.242;11.654;2022-08-21T08:10:40;4.28;;;2.97;;
62509;SDS011;48558;48.242;11.654;2022-08-21T08:15:45;3.10;;;2.90;;
62509;SDS011;48558;48.242;11.654;2022-08-21T08:20:49;3.70;;;2.92;;
62509;SDS011;48558;48.242;11.654;2022-08-21T08:25:52;4.60;;;2.70;;
62509;SDS011;48558;48.242;11.654;2022-08-21T08:30:56;4.78;;;2.67;;
62509;SDS011;48558;48.242;11.654;2022-08-21T08:35:59;4.38;;;2.78;;
62509;SDS011;48558;48.242;11.654;2022-08-21T08:41:13;2.83;;;2.63;;
62509;SDS011;48558;48.242;11.654;2022-08-21T08:46:33;2.97;;;2.08;;
62509;SDS011;48558;48.242;11.654;2022-08-21T08:51:50;3.15;;;2.85;;
62509;SDS011;48558;48.242;11.654;2022-08-21T08:56:55;2.60;;;2.40;;
62509;SDS011;48558;48.242;11.654;2022-08-21T09:01:58;2.90;;;2.70;;
62509;SDS011;48558;48.242;11.654;2022-08-21T09:18:36;5.85;;;3.28;;
62509;SDS011;48558;48.242;11.654;2022-08-21T09:29:03;5.53;;;2.63;;
62509;SDS011;48558;48.242;11.654;2022-08-21T09:34:10;2.35;;;2.15;;
62509;SDS011;48558;48.242;11.654;2022-08-21T09:39:27;2.58;;;2.33;;
62509;SDS011;48558;48.242;11.654;2022-08-21T09:44:42;2.47;;;2.15;;
62509;SDS011;48558;48.242;11.654;2022-08-21T09:49:46;2.17;;;2.00;;
62509;SDS011;48558;48.242;11.654;2022-08-21T09:54:50;2.60;;;2.40;;
62509;SDS011;48558;48.242;11.654;2022-08-21T10:00:06;2.88;;;2.50;;
62509;SDS011;48558;48.242;11.654;2022-08-21T10:05:20;2.50;;;2.30;;
62509;SDS011;48558;48.242;11.654;2022-08-21T10:10:28;3.65;;;2.55;;
62509;SDS011;48558;48.242;11.654;2022-08-21T10:15:44;4.65;;;2.40;;
62509;SDS011;48558;48.242;11.654;2022-08-21T10:37:38;2.35;;;2.17;;
62509;SDS011;48558;48.242;11.654;2022-08-21T10:53:45;2.97;;;2.42;;
62509;SDS011;48558;48.242;11.654;2022-08-21T11:09:51;2.75;;;2.45;;
62509;SDS011;48558;48.242;11.654;2022-08-21T11:20:05;2.80;;;2.60;;
62509;SDS011;48558;48.242;11.654;2022-08-21T11:25:22;3.17;;;2.17;;
62509;SDS011;48558;48.242;11.654;2022-08-21T11:36:02;2.45;;;2.35;;
62509;SDS011;48558;48.242;11.654;2022-08-21T11:41:21;4.00;;;1.90;;
62509;SDS011;48558;48.242;11.654;2022-08-21T11:57:27;2.55;;;2.25;;
62509;SDS011;48558;48.242;11.654;2022-08-21T12:02:38;2.38;;;2.00;;
62509;SDS011;48558;48.242;11.654;2022-08-21T12:07:47;2.05;;;1.85;;
62509;SDS011;48558;48.242;11.654;2022-08-21T12:13:04;2.20;;;2.00;;
62509;SDS011;48558;48.242;11.654;2022-08-21T12:18:27;2.17;;;2.08;;
62509;SDS011;48558;48.242;11.654;2022-08-21T12:23:46;2.13;;;1.90;;
62509;SDS011;48558;48.242;11.654;2022-08-21T12:34:18;2.03;;;1.88;;
62509;SDS011;48558;48.242;11.654;2022-08-21T12:39:26;2.08;;;1.90;;
62509;SDS011;48558;48.242;11.654;2022-08-21T12:44:34;2.20;;;2.10;;
62509;SDS011;48558;48.242;11.654;2022-08-21T12:49:51;2.20;;;2.10;;
62509;SDS011;48558;48.242;11.654;2022-08-21T12:55:00;2.63;;;2.20;;
62509;SDS011;48558;48.242;11.654;2022-08-21T13:00:05;3.38;;;1.85;;
62509;SDS011;48558;48.242;11.654;2022-08-21T13:05:25;2.95;;;2.53;;
62509;SDS011;48558;48.242;11.654;2022-08-21T13:10:32;1.85;;;1.75;;
62509;SDS011;48558;48.242;11.654;2022-08-21T13:15:39;2.00;;;1.80;;
62509;SDS011;48558;48.242;11.654;2022-08-21T13:20:49;2.03;;;1.80;;
62509;SDS011;48558;48.242;11.654;2022-08-21T13:25:54;2.85;;;1.63;;
62509;SDS011;48558;48.242;11.654;2022-08-21T13:30:59;2.78;;;2.03;;
62509;SDS011;48558;48.242;11.654;2022-08-21T13:36:14;4.03;;;1.67;;
62509;SDS011;48558;48.242;11.654;2022-08-21T13:41:29;1.67;;;1.58;;
62509;SDS011;48558;48.242;11.654;2022-08-21T13:46:35;4.20;;;1.98;;
62509;SDS011;48558;48.242;11.654;2022-08-21T13:52:23;2.60;;;1.77;;
62509;SDS011;48558;48.242;11.654;2022-08-21T13:57:42;2.03;;;1.92;;
62509;SDS011;48558;48.242;11.654;2022-08-21T14:03:45;2.65;;;1.58;;
62509;SDS011;48558;48.242;11.654;2022-08-21T14:09:28;2.00;;;1.80;;
62509;SDS011;48558;48.242;11.654;2022-08-21T14:15:27;2.88;;;1.88;;
62509;SDS011;48558;48.242;11.654;2022-08-21T14:21:09;3.78;;;2.10;;
62509;SDS011;48558;48.242;11.654;2022-08-21T14:33:35;2.83;;;1.90;;
62509;SDS011;48558;48.242;11.654;2022-08-21T14:38:39;2.03;;;1.92;;
62509;SDS011;48558;48.242;11.654;2022-08-21T14:43:43;1.67;;;1.58;;
62509;SDS011;48558;48.242;11.654;2022-08-21T14:49:02;2.22;;;2.00;;
62509;SDS011;48558;48.242;11.654;2022-08-21T14:54:06;2.20;;;2.00;;
62509;SDS011;48558;48.242;11.654;2022-08-21T14:59:09;1.88;;;1.77;;
62509;SDS011;48558;48.242;11.654;2022-08-21T15:04:13;2.75;;;1.85;;
62509;SDS011;48558;48.242;11.654;2022-08-21T15:09:16;1.85;;;1.70;;
62509;SDS011;48558;48.242;11.654;2022-08-21T15:14:27;2.42;;;1.90;;
62509;SDS011;48558;48.242;11.654;2022-08-21T15:19:32;2.40;;;2.20;;
62509;SDS011;48558;48.242;11.654;2022-08-21T15:24:37;1.90;;;1.80;;
62509;SDS011;48558;48.242;11.654;2022-08-21T15:29:41;4.20;;;2.30;;
62509;SDS011;48558;48.242;11.654;2022-08-21T15:34:46;2.20;;;2.10;;
62509;SDS011;48558;48.242;11.654;2022-08-21T15:39:50;3.13;;;2.40;;
62509;SDS011;48558;48.242;11.654;2022-08-21T15:44:55;2.00;;;1.90;;
62509;SDS011;48558;48.242;11.654;2022-08-21T15:50:00;4.85;;;2.40;;
62509;SDS011;48558;48.242;11.654;2022-08-21T15:55:04;7.53;;;2.70;;
62509;SDS011;48558;48.242;11.654;2022-08-21T16:00:17;2.53;;;2.08;;
62509;SDS011;48558;48.242;11.654;2022-08-21T16:05:25;3.67;;;2.28;;
62509;SDS011;48558;48.242;11.654;2022-08-21T16:10:30;3.92;;;2.33;;
62509;SDS011;48558;48.242;11.654;2022-08-21T16:15:34;3.47;;;1.98;;
62509;SDS011;48558;48.242;11.654;2022-08-21T16:20:37;4.63;;;2.55;;
62509;SDS011;48558;48.242;11.654;2022-08-21T16:25:43;2.40;;;2.20;;
62509;SDS011;48558;48.242;11.654;2022-08-21T16:30:48;2.97;;;2.40;;
62509;SDS011;48558;48.242;11.654;2022-08-21T16:35:55;3.40;;;2.60;;
62509;SDS011;48558;48.242;11.654;2022-08-21T16:40:58;2.20;;;2.10;;
62509;SDS011;48558;48.242;11.654;2022-08-21T16:46:02;3.38;;;3.08;;
62509;SDS011;48558;48.242;11.654;2022-08-21T16:51:05;2.78;;;2.58;;
62509;SDS011;48558;48.242;11.654;2022-08-21T16:56:09;5.03;;;2.55;;
62509;SDS011;48558;48.242;11.654;2022-08-21T17:01:16;2.35;;;2.13;;
62509;SDS011;48558;48.242;11.654;2022-08-21T17:06:22;5.72;;;2.60;;
62509;SDS011;48558;48.242;11.654;2022-08-21T17:11:32;2.30;;;2.10;;
62509;SDS011;48558;48.242;11.654;2022-08-21T17:16:40;2.28;;;2.08;;
62509;SDS011;48558;48.242;11.654;2022-08-21T17:21:46;1.85;;;1.75;;
62509;SDS011;48558;48.242;11.654;2022-08-21T17:26:49;4.95;;;2.05;;
62509;SDS011;48558;48.242;11.654;2022-08-21T17:31:55;4.95;;;2.00;;
62509;SDS011;48558;48.242;11.654;2022-08-21T17:36:59;5.57;;;1.90;;
62509;SDS011;48558;48.242;11.654;2022-08-21T17:42:05;2.20;;;2.05;;
62509;SDS011;48558;48.242;11.654;2022-08-21T17:47:12;4.32;;;2.10;;
62509;SDS011;48558;48.242;11.654;2022-08-21T17:52:17;2.10;;;1.90;;
62509;SDS011;48558;48.242;11.654;2022-08-21T17:57:21;1.98;;;1.88;;
62509;SDS011;48558;48.242;11.654;2022-08-21T18:02:25;2.38;;;2.17;;
62509;SDS011;48558;48.242;11.654;2022-08-21T18:07:31;3.38;;;2.10;;
62509;SDS011;48558;48.242;11.654;2022-08-21T18:12:34;3.13;;;2.33;;
62509;SDS011;48558;48.242;11.654;2022-08-21T18:17:39;3.20;;;2.38;;
62509;SDS011;48558;48.242;11.654;2022-08-21T18:22:45;5.70;;;2.33;;
62509;SDS011;48558;48.242;11.654;2022-08-21T18:27:49;2.30;;;2.10;;
62509;SDS011;48558;48.242;11.654;2022-08-21T18:32:52;2.60;;;2.40;;
62509;SDS011;48558;48.242;11.654;2022-08-21T18:37:57;2.85;;;2.33;;
62509;SDS011;48558;48.242;11.654;2022-08-21T18:43:00;2.75;;;2.50;;
62509;SDS011;48558;48.242;11.654;2022-08-21T18:48:10;7.40;;;3.13;;
62509;SDS011;48558;48.242;11.654;2022-08-21T18:53:16;8.75;;;3.38;;
62509;SDS011;48558;48.242;11.654;2022-08-21T18:58:39;3.58;;;2.90;;
62509;SDS011;48558;48.242;11.654;2022-08-21T19:03:44;3.60;;;2.80;;
62509;SDS011;48558;48.242;11.654;2022-08-21T19:08:50;3.35;;;2.70;;
62509;SDS011;48558;48.242;11.654;2022-08-21T19:13:54;6.57;;;2.55;;
62509;SDS011;48558;48.242;11.654;2022-08-21T19:18:59;5.70;;;2.60;;
62509;SDS011;48558;48.242;11.654;2022-08-21T19:24:03;3.70;;;2.33;;
62509;SDS011;48558;48.242;11.654;2022-08-21T19:29:19;4.43;;;2.95;;
62509;SDS011;48558;48.242;11.654;2022-08-21T19:34:35;3.60;;;2.80;;
62509;SDS011;48558;48.242;11.654;2022-08-21T19:39:40;3.17;;;2.60;;
62509;SDS011;48558;48.242;11.654;2022-08-21T19:44:51;9.10;;;3.20;;
62509;SDS011;48558;48.242;11.654;2022-08-21T19:50:02;4.38;;;2.65;;
62509;SDS011;48558;48.242;11.654;2022-08-21T19:55:19;2.63;;;2.47;;
62509;SDS011;48558;48.242;11.654;2022-08-21T20:00:42;3.20;;;2.83;;
62509;SDS011;48558;48.242;11.654;2022-08-21T20:05:45;4.03;;;2.75;;
62509;SDS011;48558;48.242;11.654;2022-08-21T20:10:49;3.10;;;2.75;;
62509;SDS011;48558;48.242;11.654;2022-08-21T20:15:54;3.10;;;2.90;;
62509;SDS011;48558;48.242;11.654;2022-08-21T20:20:57;4.60;;;3.00;;
62509;SDS011;48558;48.242;11.654;2022-08-21T20:26:01;3.35;;;3.05;;
62509;SDS011;48558;48.242;11.654;2022-08-21T20:31:07;3.22;;;2.92;;
62509;SDS011;48558;48.242;11.654;2022-08-21T20:36:13;8.98;;;3.72;;
62509;SDS011;48558;48.242;11.654;2022-08-21T20:41:17;5.25;;;3.33;;
62509;SDS011;48558;48.242;11.654;2022-08-21T20:46:32;5.88;;;3.17;;
62509;SDS011;48558;48.242;11.654;2022-08-21T20:51:38;6.18;;;3.45;;
62509;SDS011;48558;48.242;11.654;2022-08-21T20:56:51;3.60;;;3.30;;
62509;SDS011;48558;48.242;11.654;2022-08-21T21:02:08;4.32;;;3.20;;
62509;SDS011;48558;48.242;11.654;2022-08-21T21:19:07;3.25;;;3.05;;
62509;SDS011;48558;48.242;11.654;2022-08-21T21:30:02;4.43;;;3.10;;
62509;SDS011;48558;48.242;11.654;2022-08-21T21:35:15;6.80;;;3.58;;
62509;SDS011;48558;48.242;11.654;2022-08-21T21:46:02;6.75;;;3.20;;
62509;SDS011;48558;48.242;11.654;2022-08-21T21:51:29;6.18;;;3.30;;
62509;SDS011;48558;48.242;11.654;2022-08-21T22:13:00;3.30;;;3.00;;
62509;SDS011;48558;48.242;11.654;2022-08-21T22:18:28;3.20;;;2.90;;
62509;SDS011;48558;48.242;11.654;2022-08-21T22:23:49;3.20;;;2.85;;
62509;SDS011;48558;48.242;11.654;2022-08-21T22:28:54;3.50;;;3.20;;
62509;SDS011;48558;48.242;11.654;2022-08-21T22:34:02;3.65;;;3.35;;
62509;SDS011;48558;48.242;11.654;2022-08-21T22:39:34;3.60;;;3.30;;
62509;SDS011;48558;48.242;11.654;2022-08-21T22:45:17;4.00;;;3.58;;
62509;SDS011;48558;48.242;11.654;2022-08-21T22:50:19;4.68;;;3.30;;
62509;SDS011;48558;48.242;11.654;2022-08-21T23:00:56;5.18;;;3.50;;
62509;SDS011;48558;48.242;11.654;2022-08-21T23:06:04;4.70;;;3.67;;
62509;SDS011;48558;48.242;11.654;2022-08-21T23:11:26;3.67;;;3.10;;
62509;SDS011;48558;48.242;11.654;2022-08-21T23:22:01;3.30;;;3.10;;
62509;SDS011;48558;48.242;11.654;2022-08-21T23:38:17;5.00;;;3.10;;
62509;SDS011;48558;48.242;11.654;2022-08-21T23:49:31;3.85;;;3.10;;
62509;SDS011;48558;48.242;11.654;2022-08-21T23:54:53;3.50;;;3.03;;
